sensor_id;sensor_type;location;lat;lon;timestamp;temperature;humidity
46890;DHT22;32625;51.080;16.970;2023-04-30T00:02:22;10.80;99.90
46890;DHT22;32625;51.080;16.970;2023-04-30T00:04:49;10.90;99.90
46890;DHT22;32625;51.080;16.970;2023-04-30T00:07:17;10.80;99.90
46890;DHT22;32625;51.080;16.970;2023-04-30T00:09:44;10.80;99.90
46890;DHT22;32625;51.080;16.970;2023-04-30T00:12:11;10.80;99.90
46890;DHT22;32625;51.080;16.970;2023-04-30T00:14:38;10.80;99.90
46890;DHT22;32625;51.080;16.970;2023-04-30T00:17:05;10.80;99.90
46890;DHT22;32625;51.080;16.970;2023-04-30T00:19:32;10.70;99.90
46890;DHT22;32625;51.080;16.970;2023-04-30T00:21:59;10.70;99.90
46890;DHT22;32625;51.080;16.970;2023-04-30T00:24:31;10.70;99.90
46890;DHT22;32625;51.080;16.970;2023-04-30T00:26:58;10.70;99.90
46890;DHT22;32625;51.080;16.970;2023-04-30T00:29:25;10.70;99.90
46890;DHT22;32625;51.080;16.970;2023-04-30T00:31:52;10.70;99.90
46890;DHT22;32625;51.080;16.970;2023-04-30T00:34:20;10.70;99.90
46890;DHT22;32625;51.080;16.970;2023-04-30T00:36:47;10.70;99.90
46890;DHT22;32625;51.080;16.970;2023-04-30T00:39:14;10.70;99.90
46890;DHT22;32625;51.080;16.970;2023-04-30T00:41:42;10.70;99.90
46890;DHT22;32625;51.080;16.970;2023-04-30T00:44:09;10.70;99.90
46890;DHT22;32625;51.080;16.970;2023-04-30T00:46:36;10.70;99.90
46890;DHT22;32625;51.080;16.970;2023-04-30T00:49:04;10.70;99.90
46890;DHT22;32625;51.080;16.970;2023-04-30T00:51:32;10.60;99.90
46890;DHT22;32625;51.080;16.970;2023-04-30T00:54:00;10.60;99.90
46890;DHT22;32625;51.080;16.970;2023-04-30T00:56:32;10.60;99.90
46890;DHT22;32625;51.080;16.970;2023-04-30T00:58:59;10.60;99.90
46890;DHT22;32625;51.080;16.970;2023-04-30T01:01:27;10.60;99.90
46890;DHT22;32625;51.080;16.970;2023-04-30T01:03:55;10.60;99.90
46890;DHT22;32625;51.080;16.970;2023-04-30T01:06:23;10.60;99.90
46890;DHT22;32625;51.080;16.970;2023-04-30T01:08:52;10.60;99.90
46890;DHT22;32625;51.080;16.970;2023-04-30T01:14:03;10.60;99.90
46890;DHT22;32625;51.080;16.970;2023-04-30T01:16:47;10.50;99.90
46890;DHT22;32625;51.080;16.970;2023-04-30T01:30:30;10.50;99.90
46890;DHT22;32625;51.080;16.970;2023-04-30T01:32:59;10.40;99.90
46890;DHT22;32625;51.080;16.970;2023-04-30T01:50:02;10.10;99.90
46890;DHT22;32625;51.080;16.970;2023-04-30T01:52:54;10.00;99.90
46890;DHT22;32625;51.080;16.970;2023-04-30T01:55:44;10.00;99.90
46890;DHT22;32625;51.080;16.970;2023-04-30T01:58:14;10.00;99.90
46890;DHT22;32625;51.080;16.970;2023-04-30T02:00:42;9.90;99.90
46890;DHT22;32625;51.080;16.970;2023-04-30T02:03:09;9.90;99.90
46890;DHT22;32625;51.080;16.970;2023-04-30T02:05:37;9.70;99.90
46890;DHT22;32625;51.080;16.970;2023-04-30T02:08:04;9.70;99.90
46890;DHT22;32625;51.080;16.970;2023-04-30T02:10:32;9.70;99.90
46890;DHT22;32625;51.080;16.970;2023-04-30T02:13:01;9.60;99.90
46890;DHT22;32625;51.080;16.970;2023-04-30T02:15:28;9.60;99.90
46890;DHT22;32625;51.080;16.970;2023-04-30T02:17:56;9.40;99.90
46890;DHT22;32625;51.080;16.970;2023-04-30T02:20:23;9.40;99.90
46890;DHT22;32625;51.080;16.970;2023-04-30T02:22:51;9.50;99.90
46890;DHT22;32625;51.080;16.970;2023-04-30T02:25:19;9.30;99.90
46890;DHT22;32625;51.080;16.970;2023-04-30T02:27:46;9.20;99.90
46890;DHT22;32625;51.080;16.970;2023-04-30T02:30:13;9.10;99.90
46890;DHT22;32625;51.080;16.970;2023-04-30T02:32:40;9.10;99.90
46890;DHT22;32625;51.080;16.970;2023-04-30T02:35:08;9.00;99.90
46890;DHT22;32625;51.080;16.970;2023-04-30T02:37:35;8.90;99.90
46890;DHT22;32625;51.080;16.970;2023-04-30T02:40:03;8.90;99.90
46890;DHT22;32625;51.080;16.970;2023-04-30T02:42:31;8.90;99.90
46890;DHT22;32625;51.080;16.970;2023-04-30T02:44:59;8.80;99.90
46890;DHT22;32625;51.080;16.970;2023-04-30T02:47:26;8.80;99.90
46890;DHT22;32625;51.080;16.970;2023-04-30T02:49:53;8.70;99.90
46890;DHT22;32625;51.080;16.970;2023-04-30T02:52:21;8.70;99.90
46890;DHT22;32625;51.080;16.970;2023-04-30T02:54:48;8.70;99.90
46890;DHT22;32625;51.080;16.970;2023-04-30T02:57:16;8.60;99.90
46890;DHT22;32625;51.080;16.970;2023-04-30T02:59:43;8.60;99.90
46890;DHT22;32625;51.080;16.970;2023-04-30T03:02:12;8.70;99.90
46890;DHT22;32625;51.080;16.970;2023-04-30T03:04:40;8.60;99.90
46890;DHT22;32625;51.080;16.970;2023-04-30T03:07:07;8.60;99.90
46890;DHT22;32625;51.080;16.970;2023-04-30T03:09:35;8.60;99.90
46890;DHT22;32625;51.080;16.970;2023-04-30T03:12:02;8.50;99.90
46890;DHT22;32625;51.080;16.970;2023-04-30T03:14:29;8.50;99.90
46890;DHT22;32625;51.080;16.970;2023-04-30T03:16:59;8.50;99.90
46890;DHT22;32625;51.080;16.970;2023-04-30T03:19:27;8.50;99.90
46890;DHT22;32625;51.080;16.970;2023-04-30T03:21:54;8.40;99.90
46890;DHT22;32625;51.080;16.970;2023-04-30T03:24:22;8.30;99.90
46890;DHT22;32625;51.080;16.970;2023-04-30T03:26:51;8.30;99.90
46890;DHT22;32625;51.080;16.970;2023-04-30T03:29:21;8.30;99.90
46890;DHT22;32625;51.080;16.970;2023-04-30T03:31:48;8.20;99.90
46890;DHT22;32625;51.080;16.970;2023-04-30T03:34:16;8.20;99.90
46890;DHT22;32625;51.080;16.970;2023-04-30T05:03:18;8.30;99.90
46890;DHT22;32625;51.080;16.970;2023-04-30T05:05:48;8.40;99.90
46890;DHT22;32625;51.080;16.970;2023-04-30T05:08:36;8.40;99.90
46890;DHT22;32625;51.080;16.970;2023-04-30T05:11:05;8.50;99.90
46890;DHT22;32625;51.080;16.970;2023-04-30T05:13:33;8.40;99.90
46890;DHT22;32625;51.080;16.970;2023-04-30T05:16:29;8.50;99.90
46890;DHT22;32625;51.080;16.970;2023-04-30T05:19:12;8.50;99.90
46890;DHT22;32625;51.080;16.970;2023-04-30T05:21:42;8.60;99.90
46890;DHT22;32625;51.080;16.970;2023-04-30T05:24:09;8.70;99.90
46890;DHT22;32625;51.080;16.970;2023-04-30T05:26:37;8.80;99.90
46890;DHT22;32625;51.080;16.970;2023-04-30T05:29:04;8.90;99.90
46890;DHT22;32625;51.080;16.970;2023-04-30T05:31:31;8.90;99.90
46890;DHT22;32625;51.080;16.970;2023-04-30T05:33:58;9.00;99.90
46890;DHT22;32625;51.080;16.970;2023-04-30T05:36:25;9.00;99.90
46890;DHT22;32625;51.080;16.970;2023-04-30T05:38:53;9.00;99.90
46890;DHT22;32625;51.080;16.970;2023-04-30T05:41:20;8.90;99.90
46890;DHT22;32625;51.080;16.970;2023-04-30T05:43:47;9.00;99.90
46890;DHT22;32625;51.080;16.970;2023-04-30T05:46:14;9.00;99.90
46890;DHT22;32625;51.080;16.970;2023-04-30T05:48:42;9.10;99.90
46890;DHT22;32625;51.080;16.970;2023-04-30T05:51:09;9.00;99.90
46890;DHT22;32625;51.080;16.970;2023-04-30T05:53:41;9.10;99.90
46890;DHT22;32625;51.080;16.970;2023-04-30T05:56:09;9.10;99.90
46890;DHT22;32625;51.080;16.970;2023-04-30T05:58:36;9.10;99.90
46890;DHT22;32625;51.080;16.970;2023-04-30T06:01:03;9.10;99.90
46890;DHT22;32625;51.080;16.970;2023-04-30T06:03:31;9.00;99.90
46890;DHT22;32625;51.080;16.970;2023-04-30T06:05:58;9.10;99.90
46890;DHT22;32625;51.080;16.970;2023-04-30T06:08:25;9.10;99.90
46890;DHT22;32625;51.080;16.970;2023-04-30T06:10:52;9.20;99.90
46890;DHT22;32625;51.080;16.970;2023-04-30T06:13:20;9.30;99.90
46890;DHT22;32625;51.080;16.970;2023-04-30T06:15:47;9.30;99.90
46890;DHT22;32625;51.080;16.970;2023-04-30T06:18:15;9.30;99.90
46890;DHT22;32625;51.080;16.970;2023-04-30T06:20:42;9.30;99.90
46890;DHT22;32625;51.080;16.970;2023-04-30T06:23:09;9.40;99.90
46890;DHT22;32625;51.080;16.970;2023-04-30T06:25:36;9.40;99.90
46890;DHT22;32625;51.080;16.970;2023-04-30T06:28:04;9.50;99.90
46890;DHT22;32625;51.080;16.970;2023-04-30T06:30:31;9.50;99.90
46890;DHT22;32625;51.080;16.970;2023-04-30T06:32:59;9.50;99.90
46890;DHT22;32625;51.080;16.970;2023-04-30T06:35:26;9.50;99.90
46890;DHT22;32625;51.080;16.970;2023-04-30T06:37:53;9.70;99.90
46890;DHT22;32625;51.080;16.970;2023-04-30T06:40:20;9.70;99.90
46890;DHT22;32625;51.080;16.970;2023-04-30T06:42:47;9.70;99.90
46890;DHT22;32625;51.080;16.970;2023-04-30T06:45:14;9.70;99.90
46890;DHT22;32625;51.080;16.970;2023-04-30T06:47:42;9.80;99.90
46890;DHT22;32625;51.080;16.970;2023-04-30T06:50:11;9.90;99.90
46890;DHT22;32625;51.080;16.970;2023-04-30T06:52:38;10.10;99.90
46890;DHT22;32625;51.080;16.970;2023-04-30T06:55:06;10.10;99.90
46890;DHT22;32625;51.080;16.970;2023-04-30T06:57:35;10.10;99.90
46890;DHT22;32625;51.080;16.970;2023-04-30T07:00:05;10.10;99.90
46890;DHT22;32625;51.080;16.970;2023-04-30T07:02:32;10.10;99.90
46890;DHT22;32625;51.080;16.970;2023-04-30T07:05:00;10.20;99.90
46890;DHT22;32625;51.080;16.970;2023-04-30T07:07:27;10.30;99.90
46890;DHT22;32625;51.080;16.970;2023-04-30T07:09:54;10.30;99.90
46890;DHT22;32625;51.080;16.970;2023-04-30T07:12:22;10.30;99.90
46890;DHT22;32625;51.080;16.970;2023-04-30T07:14:49;10.40;99.90
46890;DHT22;32625;51.080;16.970;2023-04-30T07:17:16;10.50;99.90
46890;DHT22;32625;51.080;16.970;2023-04-30T07:19:44;10.30;99.90
46890;DHT22;32625;51.080;16.970;2023-04-30T07:22:11;10.40;99.90
46890;DHT22;32625;51.080;16.970;2023-04-30T07:24:38;10.50;99.90
46890;DHT22;32625;51.080;16.970;2023-04-30T07:27:05;10.70;99.90
46890;DHT22;32625;51.080;16.970;2023-04-30T07:29:34;10.90;99.90
46890;DHT22;32625;51.080;16.970;2023-04-30T07:32:01;10.90;99.90
46890;DHT22;32625;51.080;16.970;2023-04-30T07:34:29;11.00;99.90
46890;DHT22;32625;51.080;16.970;2023-04-30T07:36:56;11.10;99.90
46890;DHT22;32625;51.080;16.970;2023-04-30T07:39:23;11.30;99.90
46890;DHT22;32625;51.080;16.970;2023-04-30T07:41:50;11.30;99.90
46890;DHT22;32625;51.080;16.970;2023-04-30T07:44:17;11.50;99.90
46890;DHT22;32625;51.080;16.970;2023-04-30T07:46:44;11.40;99.90
46890;DHT22;32625;51.080;16.970;2023-04-30T07:49:12;11.40;99.90
46890;DHT22;32625;51.080;16.970;2023-04-30T07:51:39;11.50;99.90
46890;DHT22;32625;51.080;16.970;2023-04-30T07:54:10;11.60;99.90
46890;DHT22;32625;51.080;16.970;2023-04-30T07:56:41;11.60;99.90
46890;DHT22;32625;51.080;16.970;2023-04-30T07:59:08;11.60;99.90
46890;DHT22;32625;51.080;16.970;2023-04-30T08:01:35;11.60;99.90
46890;DHT22;32625;51.080;16.970;2023-04-30T08:04:03;11.60;99.90
46890;DHT22;32625;51.080;16.970;2023-04-30T08:06:30;11.70;99.90
46890;DHT22;32625;51.080;16.970;2023-04-30T08:08:57;11.80;99.90
46890;DHT22;32625;51.080;16.970;2023-04-30T08:11:25;11.90;99.90
46890;DHT22;32625;51.080;16.970;2023-04-30T08:13:53;12.00;99.90
46890;DHT22;32625;51.080;16.970;2023-04-30T08:16:20;12.00;99.50
46890;DHT22;32625;51.080;16.970;2023-04-30T08:18:47;12.00;98.40
46890;DHT22;32625;51.080;16.970;2023-04-30T08:21:15;12.00;99.00
46890;DHT22;32625;51.080;16.970;2023-04-30T08:23:43;11.90;96.80
46890;DHT22;32625;51.080;16.970;2023-04-30T08:26:11;11.80;97.80
46890;DHT22;32625;51.080;16.970;2023-04-30T08:28:38;11.90;98.40
46890;DHT22;32625;51.080;16.970;2023-04-30T08:31:06;12.00;96.90
46890;DHT22;32625;51.080;16.970;2023-04-30T08:33:33;12.00;95.60
46890;DHT22;32625;51.080;16.970;2023-04-30T08:36:00;11.90;95.80
46890;DHT22;32625;51.080;16.970;2023-04-30T08:38:27;11.90;93.70
46890;DHT22;32625;51.080;16.970;2023-04-30T08:43:30;12.10;95.10
46890;DHT22;32625;51.080;16.970;2023-04-30T08:45:57;12.10;94.70
46890;DHT22;32625;51.080;16.970;2023-04-30T08:48:26;12.10;92.60
46890;DHT22;32625;51.080;16.970;2023-04-30T08:50:53;12.20;92.70
46890;DHT22;32625;51.080;16.970;2023-04-30T08:53:21;12.10;89.50
46890;DHT22;32625;51.080;16.970;2023-04-30T08:55:48;12.10;85.50
46890;DHT22;32625;51.080;16.970;2023-04-30T08:58:15;12.30;84.90
46890;DHT22;32625;51.080;16.970;2023-04-30T09:00:42;12.50;84.40
46890;DHT22;32625;51.080;16.970;2023-04-30T09:03:09;12.50;79.30
46890;DHT22;32625;51.080;16.970;2023-04-30T09:05:37;12.40;78.60
46890;DHT22;32625;51.080;16.970;2023-04-30T09:08:06;12.50;77.40
46890;DHT22;32625;51.080;16.970;2023-04-30T09:10:34;12.60;75.10
46890;DHT22;32625;51.080;16.970;2023-04-30T09:13:04;12.60;75.80
46890;DHT22;32625;51.080;16.970;2023-04-30T09:15:32;12.70;76.90
46890;DHT22;32625;51.080;16.970;2023-04-30T09:18:16;12.80;77.90
46890;DHT22;32625;51.080;16.970;2023-04-30T09:20:58;12.70;77.70
46890;DHT22;32625;51.080;16.970;2023-04-30T09:23:28;12.50;80.50
46890;DHT22;32625;51.080;16.970;2023-04-30T09:25:56;12.40;84.80
46890;DHT22;32625;51.080;16.970;2023-04-30T09:28:23;12.30;85.10
46890;DHT22;32625;51.080;16.970;2023-04-30T09:30:51;12.20;86.40
46890;DHT22;32625;51.080;16.970;2023-04-30T09:33:19;12.30;87.10
46890;DHT22;32625;51.080;16.970;2023-04-30T09:35:46;12.40;87.60
46890;DHT22;32625;51.080;16.970;2023-04-30T09:38:30;12.50;85.40
46890;DHT22;32625;51.080;16.970;2023-04-30T09:40:59;12.50;80.50
46890;DHT22;32625;51.080;16.970;2023-04-30T09:43:28;12.50;79.90
46890;DHT22;32625;51.080;16.970;2023-04-30T09:45:57;12.30;78.90
46890;DHT22;32625;51.080;16.970;2023-04-30T09:48:25;12.30;79.10
46890;DHT22;32625;51.080;16.970;2023-04-30T09:50:54;12.50;78.90
46890;DHT22;32625;51.080;16.970;2023-04-30T09:53:21;12.60;78.80
46890;DHT22;32625;51.080;16.970;2023-04-30T09:55:50;12.60;78.60
46890;DHT22;32625;51.080;16.970;2023-04-30T09:58:18;12.60;78.40
46890;DHT22;32625;51.080;16.970;2023-04-30T10:00:46;12.80;75.10
46890;DHT22;32625;51.080;16.970;2023-04-30T10:03:15;12.80;75.40
46890;DHT22;32625;51.080;16.970;2023-04-30T10:05:45;13.00;71.80
46890;DHT22;32625;51.080;16.970;2023-04-30T10:08:32;13.00;69.50
46890;DHT22;32625;51.080;16.970;2023-04-30T10:11:03;13.00;71.10
46890;DHT22;32625;51.080;16.970;2023-04-30T10:13:42;13.10;72.00
46890;DHT22;32625;51.080;16.970;2023-04-30T10:16:39;13.20;71.70
46890;DHT22;32625;51.080;16.970;2023-04-30T10:19:06;13.10;68.60
46890;DHT22;32625;51.080;16.970;2023-04-30T10:21:39;13.20;71.30
46890;DHT22;32625;51.080;16.970;2023-04-30T10:24:09;13.40;69.80
46890;DHT22;32625;51.080;16.970;2023-04-30T10:26:38;13.30;68.90
46890;DHT22;32625;51.080;16.970;2023-04-30T10:29:06;13.30;67.20
46890;DHT22;32625;51.080;16.970;2023-04-30T10:31:34;13.20;67.30
46890;DHT22;32625;51.080;16.970;2023-04-30T10:37:04;13.50;65.40
46890;DHT22;32625;51.080;16.970;2023-04-30T10:39:33;13.50;64.50
46890;DHT22;32625;51.080;16.970;2023-04-30T10:42:02;13.60;63.40
46890;DHT22;32625;51.080;16.970;2023-04-30T10:44:33;13.60;62.90
46890;DHT22;32625;51.080;16.970;2023-04-30T10:47:03;13.50;62.30
46890;DHT22;32625;51.080;16.970;2023-04-30T10:49:30;13.50;64.70
46890;DHT22;32625;51.080;16.970;2023-04-30T10:52:00;13.60;61.70
46890;DHT22;32625;51.080;16.970;2023-04-30T10:54:37;13.70;63.10
46890;DHT22;32625;51.080;16.970;2023-04-30T10:57:13;13.70;61.50
46890;DHT22;32625;51.080;16.970;2023-04-30T11:00:16;13.70;63.00
46890;DHT22;32625;51.080;16.970;2023-04-30T11:02:41;13.70;62.00
46890;DHT22;32625;51.080;16.970;2023-04-30T11:05:14;13.80;62.80
46890;DHT22;32625;51.080;16.970;2023-04-30T11:07:57;13.60;60.90
46890;DHT22;32625;51.080;16.970;2023-04-30T11:10:26;13.70;62.00
46890;DHT22;32625;51.080;16.970;2023-04-30T11:12:54;13.80;59.50
46890;DHT22;32625;51.080;16.970;2023-04-30T11:15:25;13.80;58.20
46890;DHT22;32625;51.080;16.970;2023-04-30T11:17:57;13.80;57.10
46890;DHT22;32625;51.080;16.970;2023-04-30T11:20:25;13.90;57.90
46890;DHT22;32625;51.080;16.970;2023-04-30T11:23:15;13.80;56.30
46890;DHT22;32625;51.080;16.970;2023-04-30T11:25:53;13.80;57.70
46890;DHT22;32625;51.080;16.970;2023-04-30T11:28:24;13.90;57.40
46890;DHT22;32625;51.080;16.970;2023-04-30T11:30:54;13.80;56.90
46890;DHT22;32625;51.080;16.970;2023-04-30T11:33:23;13.90;57.60
46890;DHT22;32625;51.080;16.970;2023-04-30T11:35:51;14.10;57.90
46890;DHT22;32625;51.080;16.970;2023-04-30T11:38:21;14.30;57.00
46890;DHT22;32625;51.080;16.970;2023-04-30T11:40:50;14.30;54.90
46890;DHT22;32625;51.080;16.970;2023-04-30T11:43:29;14.20;55.20
46890;DHT22;32625;51.080;16.970;2023-04-30T11:46:14;14.30;55.70
46890;DHT22;32625;51.080;16.970;2023-04-30T11:48:44;14.40;56.60
46890;DHT22;32625;51.080;16.970;2023-04-30T11:51:19;14.50;55.50
46890;DHT22;32625;51.080;16.970;2023-04-30T11:53:47;14.60;57.10
46890;DHT22;32625;51.080;16.970;2023-04-30T11:56:19;14.50;55.80
46890;DHT22;32625;51.080;16.970;2023-04-30T11:58:49;14.70;56.30
46890;DHT22;32625;51.080;16.970;2023-04-30T12:01:17;14.70;53.60
46890;DHT22;32625;51.080;16.970;2023-04-30T12:03:48;14.60;53.70
46890;DHT22;32625;51.080;16.970;2023-04-30T12:06:24;14.70;51.70
46890;DHT22;32625;51.080;16.970;2023-04-30T12:08:56;14.70;51.20
46890;DHT22;32625;51.080;16.970;2023-04-30T12:11:28;14.70;53.00
46890;DHT22;32625;51.080;16.970;2023-04-30T12:14:04;14.80;52.90
46890;DHT22;32625;51.080;16.970;2023-04-30T12:16:44;14.80;52.40
46890;DHT22;32625;51.080;16.970;2023-04-30T12:19:17;14.70;51.50
46890;DHT22;32625;51.080;16.970;2023-04-30T12:21:45;14.60;52.20
46890;DHT22;32625;51.080;16.970;2023-04-30T12:24:15;14.70;53.10
46890;DHT22;32625;51.080;16.970;2023-04-30T12:26:43;14.70;53.50
46890;DHT22;32625;51.080;16.970;2023-04-30T12:29:17;14.80;54.80
46890;DHT22;32625;51.080;16.970;2023-04-30T12:31:48;15.00;53.10
46890;DHT22;32625;51.080;16.970;2023-04-30T12:34:16;14.90;53.30
46890;DHT22;32625;51.080;16.970;2023-04-30T12:36:44;15.00;52.50
46890;DHT22;32625;51.080;16.970;2023-04-30T12:39:12;15.00;50.50
46890;DHT22;32625;51.080;16.970;2023-04-30T12:41:46;15.00;51.60
46890;DHT22;32625;51.080;16.970;2023-04-30T12:44:22;15.00;52.00
46890;DHT22;32625;51.080;16.970;2023-04-30T12:46:51;15.10;51.80
46890;DHT22;32625;51.080;16.970;2023-04-30T12:49:29;15.00;51.10
46890;DHT22;32625;51.080;16.970;2023-04-30T12:52:11;15.00;50.80
46890;DHT22;32625;51.080;16.970;2023-04-30T12:54:39;15.10;50.90
46890;DHT22;32625;51.080;16.970;2023-04-30T12:57:09;15.10;50.70
46890;DHT22;32625;51.080;16.970;2023-04-30T12:59:56;15.20;50.50
46890;DHT22;32625;51.080;16.970;2023-04-30T13:02:27;15.30;50.60
46890;DHT22;32625;51.080;16.970;2023-04-30T13:04:55;15.30;50.80
46890;DHT22;32625;51.080;16.970;2023-04-30T13:07:23;15.50;51.00
46890;DHT22;32625;51.080;16.970;2023-04-30T13:09:50;15.40;51.40
46890;DHT22;32625;51.080;16.970;2023-04-30T13:12:17;15.30;51.10
46890;DHT22;32625;51.080;16.970;2023-04-30T13:14:45;15.30;49.90
46890;DHT22;32625;51.080;16.970;2023-04-30T13:17:12;15.30;49.80
46890;DHT22;32625;51.080;16.970;2023-04-30T13:19:39;15.40;50.20
46890;DHT22;32625;51.080;16.970;2023-04-30T13:22:07;15.50;50.60
46890;DHT22;32625;51.080;16.970;2023-04-30T13:24:35;15.70;50.40
46890;DHT22;32625;51.080;16.970;2023-04-30T13:27:02;15.80;49.50
46890;DHT22;32625;51.080;16.970;2023-04-30T13:29:29;15.80;49.90
46890;DHT22;32625;51.080;16.970;2023-04-30T13:31:57;15.90;48.60
46890;DHT22;32625;51.080;16.970;2023-04-30T13:34:26;15.80;46.70
46890;DHT22;32625;51.080;16.970;2023-04-30T13:36:53;15.90;48.30
46890;DHT22;32625;51.080;16.970;2023-04-30T13:39:20;15.90;47.70
46890;DHT22;32625;51.080;16.970;2023-04-30T13:41:47;16.00;48.20
46890;DHT22;32625;51.080;16.970;2023-04-30T13:44:15;16.20;48.40
46890;DHT22;32625;51.080;16.970;2023-04-30T13:46:43;16.20;48.30
46890;DHT22;32625;51.080;16.970;2023-04-30T13:49:10;16.20;48.20
46890;DHT22;32625;51.080;16.970;2023-04-30T13:51:37;16.40;46.80
46890;DHT22;32625;51.080;16.970;2023-04-30T13:54:04;16.50;45.50
46890;DHT22;32625;51.080;16.970;2023-04-30T13:56:31;16.70;46.40
46890;DHT22;32625;51.080;16.970;2023-04-30T13:58:59;16.60;45.30
46890;DHT22;32625;51.080;16.970;2023-04-30T14:01:26;16.70;45.40
46890;DHT22;32625;51.080;16.970;2023-04-30T14:03:53;16.80;46.50
46890;DHT22;32625;51.080;16.970;2023-04-30T14:06:20;17.20;46.20
46890;DHT22;32625;51.080;16.970;2023-04-30T14:08:48;17.80;46.20
46890;DHT22;32625;51.080;16.970;2023-04-30T14:11:15;20.50;42.50
46890;DHT22;32625;51.080;16.970;2023-04-30T14:13:45;25.80;33.60
46890;DHT22;32625;51.080;16.970;2023-04-30T14:16:53;29.80;27.80
46890;DHT22;32625;51.080;16.970;2023-04-30T14:19:24;32.40;25.30
46890;DHT22;32625;51.080;16.970;2023-04-30T14:21:55;33.90;24.20
46890;DHT22;32625;51.080;16.970;2023-04-30T14:24:27;31.10;24.50
46890;DHT22;32625;51.080;16.970;2023-04-30T14:26:56;28.20;28.10
46890;DHT22;32625;51.080;16.970;2023-04-30T14:29:24;24.30;30.60
46890;DHT22;32625;51.080;16.970;2023-04-30T14:31:51;21.50;32.80
46890;DHT22;32625;51.080;16.970;2023-04-30T14:34:18;20.30;35.00
46890;DHT22;32625;51.080;16.970;2023-04-30T14:36:46;19.50;35.80
46890;DHT22;32625;51.080;16.970;2023-04-30T14:39:13;18.80;36.40
46890;DHT22;32625;51.080;16.970;2023-04-30T14:41:40;18.20;37.60
46890;DHT22;32625;51.080;16.970;2023-04-30T14:44:07;17.90;38.20
46890;DHT22;32625;51.080;16.970;2023-04-30T14:46:34;17.70;39.50
46890;DHT22;32625;51.080;16.970;2023-04-30T14:49:01;17.50;39.60
46890;DHT22;32625;51.080;16.970;2023-04-30T14:51:30;17.30;40.20
46890;DHT22;32625;51.080;16.970;2023-04-30T14:53:58;17.20;40.50
46890;DHT22;32625;51.080;16.970;2023-04-30T14:56:26;17.00;39.80
46890;DHT22;32625;51.080;16.970;2023-04-30T14:58:53;16.90;40.10
46890;DHT22;32625;51.080;16.970;2023-04-30T15:01:20;16.80;41.70
46890;DHT22;32625;51.080;16.970;2023-04-30T15:03:48;16.70;41.00
46890;DHT22;32625;51.080;16.970;2023-04-30T15:06:15;16.60;39.60
46890;DHT22;32625;51.080;16.970;2023-04-30T15:08:42;16.40;39.80
46890;DHT22;32625;51.080;16.970;2023-04-30T15:11:09;16.30;40.80
46890;DHT22;32625;51.080;16.970;2023-04-30T15:13:39;16.30;40.70
46890;DHT22;32625;51.080;16.970;2023-04-30T15:16:06;16.20;40.50
46890;DHT22;32625;51.080;16.970;2023-04-30T15:18:33;16.10;40.10
46890;DHT22;32625;51.080;16.970;2023-04-30T15:21:00;16.00;40.20
46890;DHT22;32625;51.080;16.970;2023-04-30T15:23:28;15.90;39.90
46890;DHT22;32625;51.080;16.970;2023-04-30T15:25:56;15.90;40.50
46890;DHT22;32625;51.080;16.970;2023-04-30T15:28:23;15.90;40.40
46890;DHT22;32625;51.080;16.970;2023-04-30T15:30:50;15.80;40.10
46890;DHT22;32625;51.080;16.970;2023-04-30T15:33:21;15.70;39.80
46890;DHT22;32625;51.080;16.970;2023-04-30T15:35:53;15.60;39.60
46890;DHT22;32625;51.080;16.970;2023-04-30T15:38:20;15.40;40.60
46890;DHT22;32625;51.080;16.970;2023-04-30T15:40:48;15.40;42.10
46890;DHT22;32625;51.080;16.970;2023-04-30T15:43:15;15.40;42.20
46890;DHT22;32625;51.080;16.970;2023-04-30T15:45:43;15.40;42.20
46890;DHT22;32625;51.080;16.970;2023-04-30T15:48:11;15.40;42.40
46890;DHT22;32625;51.080;16.970;2023-04-30T15:50:38;15.40;42.40
46890;DHT22;32625;51.080;16.970;2023-04-30T15:53:06;15.20;43.50
46890;DHT22;32625;51.080;16.970;2023-04-30T15:55:33;15.20;42.90
46890;DHT22;32625;51.080;16.970;2023-04-30T15:58:00;15.10;43.80
46890;DHT22;32625;51.080;16.970;2023-04-30T16:00:27;15.00;44.30
46890;DHT22;32625;51.080;16.970;2023-04-30T16:02:55;15.00;46.30
46890;DHT22;32625;51.080;16.970;2023-04-30T16:05:22;14.90;45.90
46890;DHT22;32625;51.080;16.970;2023-04-30T16:07:51;14.90;44.80
46890;DHT22;32625;51.080;16.970;2023-04-30T16:10:18;14.90;44.40
46890;DHT22;32625;51.080;16.970;2023-04-30T16:12:45;14.90;45.00
46890;DHT22;32625;51.080;16.970;2023-04-30T16:15:13;14.80;44.50
46890;DHT22;32625;51.080;16.970;2023-04-30T16:17:40;14.80;44.70
46890;DHT22;32625;51.080;16.970;2023-04-30T16:20:07;14.80;45.20
46890;DHT22;32625;51.080;16.970;2023-04-30T16:22:35;14.70;46.10
46890;DHT22;32625;51.080;16.970;2023-04-30T16:25:03;14.70;45.50
46890;DHT22;32625;51.080;16.970;2023-04-30T16:27:30;14.70;46.00
46890;DHT22;32625;51.080;16.970;2023-04-30T16:29:59;14.60;46.00
46890;DHT22;32625;51.080;16.970;2023-04-30T16:32:27;14.60;45.10
46890;DHT22;32625;51.080;16.970;2023-04-30T16:34:54;14.50;45.60
46890;DHT22;32625;51.080;16.970;2023-04-30T16:37:21;14.50;45.60
46890;DHT22;32625;51.080;16.970;2023-04-30T16:39:49;14.40;46.10
46890;DHT22;32625;51.080;16.970;2023-04-30T16:42:16;14.40;45.90
46890;DHT22;32625;51.080;16.970;2023-04-30T16:44:43;14.40;46.00
46890;DHT22;32625;51.080;16.970;2023-04-30T16:47:10;14.30;46.10
46890;DHT22;32625;51.080;16.970;2023-04-30T16:49:37;14.30;46.40
46890;DHT22;32625;51.080;16.970;2023-04-30T16:52:05;14.20;46.80
46890;DHT22;32625;51.080;16.970;2023-04-30T16:54:33;14.20;45.90
46890;DHT22;32625;51.080;16.970;2023-04-30T16:57:00;14.10;46.60
46890;DHT22;32625;51.080;16.970;2023-04-30T16:59:30;14.10;46.70
46890;DHT22;32625;51.080;16.970;2023-04-30T17:01:57;14.10;46.80
46890;DHT22;32625;51.080;16.970;2023-04-30T17:04:26;14.00;46.60
46890;DHT22;32625;51.080;16.970;2023-04-30T17:06:53;14.00;45.80
46890;DHT22;32625;51.080;16.970;2023-04-30T17:09:20;13.90;46.00
46890;DHT22;32625;51.080;16.970;2023-04-30T17:11:49;13.90;46.50
46890;DHT22;32625;51.080;16.970;2023-04-30T17:14:16;13.80;46.40
46890;DHT22;32625;51.080;16.970;2023-04-30T17:16:43;13.80;46.10
46890;DHT22;32625;51.080;16.970;2023-04-30T17:19:10;13.80;46.30
46890;DHT22;32625;51.080;16.970;2023-04-30T17:21:37;13.70;46.30
46890;DHT22;32625;51.080;16.970;2023-04-30T17:24:05;13.70;46.00
46890;DHT22;32625;51.080;16.970;2023-04-30T17:26:32;13.60;46.60
46890;DHT22;32625;51.080;16.970;2023-04-30T17:28:59;13.60;46.50
46890;DHT22;32625;51.080;16.970;2023-04-30T17:31:29;13.60;47.50
46890;DHT22;32625;51.080;16.970;2023-04-30T17:33:56;13.50;47.70